sensor_id;sensor_type;location;lat;lon;timestamp;temperature;humidity
316;DHT22;14128;48.686;9.738;2023-02-04T00:02:02;5.80;1.40
316;DHT22;14128;48.686;9.738;2023-02-04T00:04:30;5.80;1.40
316;DHT22;14128;48.686;9.738;2023-02-04T00:06:57;5.80;1.40
316;DHT22;14128;48.686;9.738;2023-02-04T00:09:23;5.80;1.40
316;DHT22;14128;48.686;9.738;2023-02-04T00:11:51;5.80;1.40
316;DHT22;14128;48.686;9.738;2023-02-04T00:14:18;5.80;1.40
316;DHT22;14128;48.686;9.738;2023-02-04T00:16:45;5.90;1.40
316;DHT22;14128;48.686;9.738;2023-02-04T00:19:12;5.80;1.40
316;DHT22;14128;48.686;9.738;2023-02-04T00:21:39;5.90;1.40
316;DHT22;14128;48.686;9.738;2023-02-04T00:24:05;5.90;1.40
316;DHT22;14128;48.686;9.738;2023-02-04T00:26:32;5.90;1.40
316;DHT22;14128;48.686;9.738;2023-02-04T00:29:00;5.90;1.40
316;DHT22;14128;48.686;9.738;2023-02-04T00:31:27;5.90;1.40
316;DHT22;14128;48.686;9.738;2023-02-04T00:33:55;5.90;1.40
316;DHT22;14128;48.686;9.738;2023-02-04T00:36:22;5.90;1.40
316;DHT22;14128;48.686;9.738;2023-02-04T00:38:48;5.90;1.40
316;DHT22;14128;48.686;9.738;2023-02-04T00:41:15;5.90;1.40
316;DHT22;14128;48.686;9.738;2023-02-04T00:43:42;6.00;1.40
316;DHT22;14128;48.686;9.738;2023-02-04T00:46:10;5.90;1.40
316;DHT22;14128;48.686;9.738;2023-02-04T00:48:37;5.90;1.40
316;DHT22;14128;48.686;9.738;2023-02-04T00:51:04;6.00;1.40
316;DHT22;14128;48.686;9.738;2023-02-04T00:53:31;6.00;1.40
316;DHT22;14128;48.686;9.738;2023-02-04T00:55:58;6.00;1.40
316;DHT22;14128;48.686;9.738;2023-02-04T00:58:25;6.00;1.40
316;DHT22;14128;48.686;9.738;2023-02-04T01:00:51;6.00;1.40
316;DHT22;14128;48.686;9.738;2023-02-04T01:03:19;6.00;1.40
316;DHT22;14128;48.686;9.738;2023-02-04T01:05:46;6.00;1.40
316;DHT22;14128;48.686;9.738;2023-02-04T01:08:13;6.10;1.40
316;DHT22;14128;48.686;9.738;2023-02-04T01:10:40;6.10;1.40
316;DHT22;14128;48.686;9.738;2023-02-04T01:13:07;6.20;1.40
316;DHT22;14128;48.686;9.738;2023-02-04T01:15:34;6.20;1.40
316;DHT22;14128;48.686;9.738;2023-02-04T01:18:01;6.30;1.40
316;DHT22;14128;48.686;9.738;2023-02-04T01:20:29;6.30;1.40
316;DHT22;14128;48.686;9.738;2023-02-04T01:22:56;6.40;1.40
316;DHT22;14128;48.686;9.738;2023-02-04T01:25:23;6.40;1.40
316;DHT22;14128;48.686;9.738;2023-02-04T01:27:50;6.30;1.40
316;DHT22;14128;48.686;9.738;2023-02-04T01:30:17;6.40;1.40
316;DHT22;14128;48.686;9.738;2023-02-04T01:32:43;6.30;1.40
316;DHT22;14128;48.686;9.738;2023-02-04T01:35:10;6.30;1.40
316;DHT22;14128;48.686;9.738;2023-02-04T01:37:39;6.30;1.40
316;DHT22;14128;48.686;9.738;2023-02-04T01:40:06;6.30;1.40
316;DHT22;14128;48.686;9.738;2023-02-04T01:42:33;6.30;1.40
316;DHT22;14128;48.686;9.738;2023-02-04T01:45:00;6.30;1.40
316;DHT22;14128;48.686;9.738;2023-02-04T01:47:30;6.30;1.40
316;DHT22;14128;48.686;9.738;2023-02-04T01:49:57;6.30;1.40
316;DHT22;14128;48.686;9.738;2023-02-04T01:52:24;6.20;1.40
316;DHT22;14128;48.686;9.738;2023-02-04T01:54:54;6.20;1.40
316;DHT22;14128;48.686;9.738;2023-02-04T01:57:20;6.20;1.40
316;DHT22;14128;48.686;9.738;2023-02-04T01:59:48;6.20;1.40
316;DHT22;14128;48.686;9.738;2023-02-04T02:02:37;6.10;1.40
316;DHT22;14128;48.686;9.738;2023-02-04T02:05:04;6.10;1.40
316;DHT22;14128;48.686;9.738;2023-02-04T02:07:31;6.00;1.40
316;DHT22;14128;48.686;9.738;2023-02-04T02:09:59;6.00;1.40
316;DHT22;14128;48.686;9.738;2023-02-04T02:12:27;6.00;1.40
316;DHT22;14128;48.686;9.738;2023-02-04T02:14:53;6.00;1.40
316;DHT22;14128;48.686;9.738;2023-02-04T02:17:20;6.00;1.40
316;DHT22;14128;48.686;9.738;2023-02-04T02:19:47;6.00;1.40
316;DHT22;14128;48.686;9.738;2023-02-04T02:22:19;6.00;1.40
316;DHT22;14128;48.686;9.738;2023-02-04T02:24:48;5.90;1.40
316;DHT22;14128;48.686;9.738;2023-02-04T02:27:16;5.90;1.40
316;DHT22;14128;48.686;9.738;2023-02-04T02:29:42;5.90;1.40
316;DHT22;14128;48.686;9.738;2023-02-04T02:32:11;5.90;1.40
316;DHT22;14128;48.686;9.738;2023-02-04T02:34:39;5.90;1.40
316;DHT22;14128;48.686;9.738;2023-02-04T02:37:07;5.90;1.40
316;DHT22;14128;48.686;9.738;2023-02-04T02:39:35;6.00;1.40
316;DHT22;14128;48.686;9.738;2023-02-04T02:42:03;6.00;1.40
316;DHT22;14128;48.686;9.738;2023-02-04T02:44:31;6.00;1.40
316;DHT22;14128;48.686;9.738;2023-02-04T02:46:58;6.10;1.40
316;DHT22;14128;48.686;9.738;2023-02-04T02:49:25;6.10;1.40
316;DHT22;14128;48.686;9.738;2023-02-04T02:51:54;6.10;1.40
316;DHT22;14128;48.686;9.738;2023-02-04T02:54:22;6.10;1.40
316;DHT22;14128;48.686;9.738;2023-02-04T02:56:50;6.10;1.40
316;DHT22;14128;48.686;9.738;2023-02-04T02:59:19;6.10;1.40
316;DHT22;14128;48.686;9.738;2023-02-04T03:01:47;6.10;1.40
316;DHT22;14128;48.686;9.738;2023-02-04T03:04:16;6.10;1.40
316;DHT22;14128;48.686;9.738;2023-02-04T03:06:44;6.10;1.40
316;DHT22;14128;48.686;9.738;2023-02-04T03:09:11;6.00;1.40
316;DHT22;14128;48.686;9.738;2023-02-04T03:11:38;6.00;1.40
316;DHT22;14128;48.686;9.738;2023-02-04T03:14:05;6.00;1.40
316;DHT22;14128;48.686;9.738;2023-02-04T03:16:35;6.00;1.40
316;DHT22;14128;48.686;9.738;2023-02-04T03:19:04;6.00;1.40
316;DHT22;14128;48.686;9.738;2023-02-04T03:21:32;6.00;1.40
316;DHT22;14128;48.686;9.738;2023-02-04T03:23:59;6.00;1.40
316;DHT22;14128;48.686;9.738;2023-02-04T03:26:26;6.00;1.40
316;DHT22;14128;48.686;9.738;2023-02-04T03:28:53;6.00;1.40
316;DHT22;14128;48.686;9.738;2023-02-04T03:31:20;6.00;1.40
316;DHT22;14128;48.686;9.738;2023-02-04T03:33:48;6.00;1.40
316;DHT22;14128;48.686;9.738;2023-02-04T03:36:15;6.00;1.40
316;DHT22;14128;48.686;9.738;2023-02-04T03:38:42;6.00;1.40
316;DHT22;14128;48.686;9.738;2023-02-04T03:41:09;6.00;1.40
316;DHT22;14128;48.686;9.738;2023-02-04T03:43:36;6.00;1.40
316;DHT22;14128;48.686;9.738;2023-02-04T03:46:03;6.10;1.40
316;DHT22;14128;48.686;9.738;2023-02-04T03:48:30;6.00;1.40
316;DHT22;14128;48.686;9.738;2023-02-04T03:50:58;6.10;1.40
316;DHT22;14128;48.686;9.738;2023-02-04T03:53:25;6.10;1.40
316;DHT22;14128;48.686;9.738;2023-02-04T03:55:52;6.10;1.40
316;DHT22;14128;48.686;9.738;2023-02-04T03:58:18;6.10;1.40
316;DHT22;14128;48.686;9.738;2023-02-04T04:00:45;6.20;1.40
316;DHT22;14128;48.686;9.738;2023-02-04T04:03:12;6.10;1.40
316;DHT22;14128;48.686;9.738;2023-02-04T04:05:39;6.20;1.40
316;DHT22;14128;48.686;9.738;2023-02-04T04:08:07;6.20;1.40
316;DHT22;14128;48.686;9.738;2023-02-04T04:10:34;6.20;1.40
316;DHT22;14128;48.686;9.738;2023-02-04T04:13:00;6.20;1.40
316;DHT22;14128;48.686;9.738;2023-02-04T04:15:27;6.20;1.40
316;DHT22;14128;48.686;9.738;2023-02-04T04:17:55;6.20;1.40
316;DHT22;14128;48.686;9.738;2023-02-04T04:20:22;6.10;1.40
316;DHT22;14128;48.686;9.738;2023-02-04T04:22:50;6.10;1.40
316;DHT22;14128;48.686;9.738;2023-02-04T04:25:18;6.10;1.40
316;DHT22;14128;48.686;9.738;2023-02-04T04:27:45;6.10;1.40
316;DHT22;14128;48.686;9.738;2023-02-04T04:30:12;6.00;1.40
316;DHT22;14128;48.686;9.738;2023-02-04T04:32:39;6.00;1.40
316;DHT22;14128;48.686;9.738;2023-02-04T04:35:06;5.90;1.40
316;DHT22;14128;48.686;9.738;2023-02-04T04:37:33;5.80;1.40
316;DHT22;14128;48.686;9.738;2023-02-04T04:40:00;5.70;1.40
316;DHT22;14128;48.686;9.738;2023-02-04T04:42:28;5.60;1.40
316;DHT22;14128;48.686;9.738;2023-02-04T04:44:55;5.70;1.40
316;DHT22;14128;48.686;9.738;2023-02-04T04:47:22;5.60;1.40
316;DHT22;14128;48.686;9.738;2023-02-04T04:49:49;5.50;1.40
316;DHT22;14128;48.686;9.738;2023-02-04T04:52:15;5.50;1.40
316;DHT22;14128;48.686;9.738;2023-02-04T04:54:42;5.50;1.40
316;DHT22;14128;48.686;9.738;2023-02-04T04:57:09;5.50;1.40
316;DHT22;14128;48.686;9.738;2023-02-04T04:59:38;5.50;1.40
316;DHT22;14128;48.686;9.738;2023-02-04T05:02:05;5.50;1.40
316;DHT22;14128;48.686;9.738;2023-02-04T05:04:31;5.40;1.40
316;DHT22;14128;48.686;9.738;2023-02-04T05:06:58;5.40;1.40
316;DHT22;14128;48.686;9.738;2023-02-04T05:09:25;5.40;1.40
316;DHT22;14128;48.686;9.738;2023-02-04T05:11:52;5.40;1.40
316;DHT22;14128;48.686;9.738;2023-02-04T05:14:19;5.40;1.40
316;DHT22;14128;48.686;9.738;2023-02-04T05:16:47;5.40;1.40
316;DHT22;14128;48.686;9.738;2023-02-04T05:19:13;5.40;1.40
316;DHT22;14128;48.686;9.738;2023-02-04T05:21:40;5.30;1.40
316;DHT22;14128;48.686;9.738;2023-02-04T05:24:07;5.30;1.40
316;DHT22;14128;48.686;9.738;2023-02-04T05:26:34;5.30;1.40
316;DHT22;14128;48.686;9.738;2023-02-04T05:29:00;5.40;1.40
316;DHT22;14128;48.686;9.738;2023-02-04T05:31:27;5.30;1.40
316;DHT22;14128;48.686;9.738;2023-02-04T05:33:56;5.30;1.40
316;DHT22;14128;48.686;9.738;2023-02-04T05:36:23;5.30;1.40
316;DHT22;14128;48.686;9.738;2023-02-04T05:38:49;5.30;1.40
316;DHT22;14128;48.686;9.738;2023-02-04T05:41:16;5.30;1.40
316;DHT22;14128;48.686;9.738;2023-02-04T05:43:43;5.30;1.40
316;DHT22;14128;48.686;9.738;2023-02-04T05:46:10;5.30;1.40
316;DHT22;14128;48.686;9.738;2023-02-04T05:48:37;5.20;1.40
316;DHT22;14128;48.686;9.738;2023-02-04T05:51:06;5.10;1.40
316;DHT22;14128;48.686;9.738;2023-02-04T05:53:32;5.10;1.40
316;DHT22;14128;48.686;9.738;2023-02-04T05:55:59;5.00;1.40
316;DHT22;14128;48.686;9.738;2023-02-04T05:58:26;5.10;1.40
316;DHT22;14128;48.686;9.738;2023-02-04T06:00:57;5.10;1.40
316;DHT22;14128;48.686;9.738;2023-02-04T06:03:24;5.10;1.40
316;DHT22;14128;48.686;9.738;2023-02-04T06:05:51;5.10;1.40
316;DHT22;14128;48.686;9.738;2023-02-04T06:08:19;5.10;1.40
316;DHT22;14128;48.686;9.738;2023-02-04T06:10:46;5.10;1.40
316;DHT22;14128;48.686;9.738;2023-02-04T06:13:13;5.10;1.40
316;DHT22;14128;48.686;9.738;2023-02-04T06:15:40;5.00;1.40
316;DHT22;14128;48.686;9.738;2023-02-04T06:18:06;4.90;1.40
316;DHT22;14128;48.686;9.738;2023-02-04T06:20:33;4.80;1.40
316;DHT22;14128;48.686;9.738;2023-02-04T06:23:00;4.70;1.40
316;DHT22;14128;48.686;9.738;2023-02-04T06:25:28;4.50;1.40
316;DHT22;14128;48.686;9.738;2023-02-04T06:27:55;4.50;1.40
316;DHT22;14128;48.686;9.738;2023-02-04T06:30:22;4.40;1.40
316;DHT22;14128;48.686;9.738;2023-02-04T06:32:48;4.30;1.40
316;DHT22;14128;48.686;9.738;2023-02-04T06:35:15;4.30;1.40
316;DHT22;14128;48.686;9.738;2023-02-04T06:37:42;4.20;1.40
316;DHT22;14128;48.686;9.738;2023-02-04T06:40:10;4.20;1.40
316;DHT22;14128;48.686;9.738;2023-02-04T06:42:39;4.10;1.40
316;DHT22;14128;48.686;9.738;2023-02-04T06:45:06;4.10;1.40
316;DHT22;14128;48.686;9.738;2023-02-04T06:47:33;4.00;1.40
316;DHT22;14128;48.686;9.738;2023-02-04T06:50:00;3.90;1.40
316;DHT22;14128;48.686;9.738;2023-02-04T06:52:27;3.80;1.40
316;DHT22;14128;48.686;9.738;2023-02-04T06:54:53;3.70;1.40
316;DHT22;14128;48.686;9.738;2023-02-04T06:57:20;3.70;1.40
316;DHT22;14128;48.686;9.738;2023-02-04T06:59:48;3.70;1.40
316;DHT22;14128;48.686;9.738;2023-02-04T07:02:15;3.70;1.40
316;DHT22;14128;48.686;9.738;2023-02-04T07:04:42;3.70;1.40
316;DHT22;14128;48.686;9.738;2023-02-04T07:07:09;3.80;1.40
316;DHT22;14128;48.686;9.738;2023-02-04T07:09:36;3.80;1.40
316;DHT22;14128;48.686;9.738;2023-02-04T07:12:05;3.80;1.40
316;DHT22;14128;48.686;9.738;2023-02-04T07:14:32;3.90;1.40
316;DHT22;14128;48.686;9.738;2023-02-04T07:17:00;3.90;1.40
316;DHT22;14128;48.686;9.738;2023-02-04T07:19:27;3.90;1.40
316;DHT22;14128;48.686;9.738;2023-02-04T07:21:53;4.10;1.40
316;DHT22;14128;48.686;9.738;2023-02-04T07:24:21;4.10;1.40
316;DHT22;14128;48.686;9.738;2023-02-04T07:26:48;4.20;1.40
316;DHT22;14128;48.686;9.738;2023-02-04T07:29:15;4.30;1.40
316;DHT22;14128;48.686;9.738;2023-02-04T07:31:43;4.40;1.40
316;DHT22;14128;48.686;9.738;2023-02-04T07:34:12;4.50;1.40
316;DHT22;14128;48.686;9.738;2023-02-04T07:36:39;4.50;1.40
316;DHT22;14128;48.686;9.738;2023-02-04T07:39:06;4.60;1.40
316;DHT22;14128;48.686;9.738;2023-02-04T07:41:33;4.60;1.40
316;DHT22;14128;48.686;9.738;2023-02-04T07:44:00;4.70;1.40
316;DHT22;14128;48.686;9.738;2023-02-04T07:46:27;4.70;1.40
316;DHT22;14128;48.686;9.738;2023-02-04T07:48:54;4.80;1.40
316;DHT22;14128;48.686;9.738;2023-02-04T07:51:22;4.80;1.40
316;DHT22;14128;48.686;9.738;2023-02-04T07:53:49;4.90;1.40
316;DHT22;14128;48.686;9.738;2023-02-04T07:56:15;4.90;1.40
316;DHT22;14128;48.686;9.738;2023-02-04T07:58:42;5.00;1.40
316;DHT22;14128;48.686;9.738;2023-02-04T08:01:09;5.00;1.40
316;DHT22;14128;48.686;9.738;2023-02-04T08:03:36;5.00;1.40
316;DHT22;14128;48.686;9.738;2023-02-04T08:06:03;5.10;1.40
316;DHT22;14128;48.686;9.738;2023-02-04T08:08:31;5.10;1.40
316;DHT22;14128;48.686;9.738;2023-02-04T08:10:58;5.20;1.40
316;DHT22;14128;48.686;9.738;2023-02-04T08:13:24;5.30;1.40
316;DHT22;14128;48.686;9.738;2023-02-04T08:15:51;5.30;1.40
316;DHT22;14128;48.686;9.738;2023-02-04T08:18:18;5.30;1.40
316;DHT22;14128;48.686;9.738;2023-02-04T08:20:45;5.40;1.40
316;DHT22;14128;48.686;9.738;2023-02-04T08:23:12;5.50;1.40
316;DHT22;14128;48.686;9.738;2023-02-04T08:25:40;5.50;1.40
316;DHT22;14128;48.686;9.738;2023-02-04T08:28:07;5.60;1.40
316;DHT22;14128;48.686;9.738;2023-02-04T08:30:34;5.70;1.40
316;DHT22;14128;48.686;9.738;2023-02-04T08:33:00;5.90;1.40
316;DHT22;14128;48.686;9.738;2023-02-04T08:35:27;5.90;1.40
316;DHT22;14128;48.686;9.738;2023-02-04T08:37:54;6.00;1.40
316;DHT22;14128;48.686;9.738;2023-02-04T08:40:21;6.00;1.40
316;DHT22;14128;48.686;9.738;2023-02-04T08:42:49;6.10;1.40
316;DHT22;14128;48.686;9.738;2023-02-04T08:45:16;6.10;1.40
316;DHT22;14128;48.686;9.738;2023-02-04T08:47:43;6.20;1.40
316;DHT22;14128;48.686;9.738;2023-02-04T08:50:10;6.30;1.40
316;DHT22;14128;48.686;9.738;2023-02-04T08:52:37;6.30;1.40
316;DHT22;14128;48.686;9.738;2023-02-04T08:55:04;6.30;1.40
316;DHT22;14128;48.686;9.738;2023-02-04T08:57:31;6.40;1.40
316;DHT22;14128;48.686;9.738;2023-02-04T09:00:00;6.40;1.40
316;DHT22;14128;48.686;9.738;2023-02-04T09:02:28;6.40;1.40
316;DHT22;14128;48.686;9.738;2023-02-04T09:04:54;6.50;1.40
316;DHT22;14128;48.686;9.738;2023-02-04T09:07:21;6.60;1.40
316;DHT22;14128;48.686;9.738;2023-02-04T09:09:48;6.60;1.40
316;DHT22;14128;48.686;9.738;2023-02-04T09:12:15;6.60;1.40
316;DHT22;14128;48.686;9.738;2023-02-04T09:14:42;6.60;1.40
316;DHT22;14128;48.686;9.738;2023-02-04T09:17:10;6.60;1.40
316;DHT22;14128;48.686;9.738;2023-02-04T09:19:37;6.60;1.40
316;DHT22;14128;48.686;9.738;2023-02-04T09:22:03;6.60;1.40
316;DHT22;14128;48.686;9.738;2023-02-04T09:24:30;6.70;1.40
316;DHT22;14128;48.686;9.738;2023-02-04T09:26:57;6.60;1.40
316;DHT22;14128;48.686;9.738;2023-02-04T09:29:24;6.60;1.40
316;DHT22;14128;48.686;9.738;2023-02-04T09:31:51;6.70;1.40
316;DHT22;14128;48.686;9.738;2023-02-04T09:34:19;6.70;1.40
316;DHT22;14128;48.686;9.738;2023-02-04T09:36:45;6.80;1.40
316;DHT22;14128;48.686;9.738;2023-02-04T09:39:12;6.80;1.40
316;DHT22;14128;48.686;9.738;2023-02-04T09:41:40;6.80;1.40
316;DHT22;14128;48.686;9.738;2023-02-04T09:44:11;6.80;1.40
316;DHT22;14128;48.686;9.738;2023-02-04T09:46:41;6.80;1.40
316;DHT22;14128;48.686;9.738;2023-02-04T09:49:10;6.70;1.40
316;DHT22;14128;48.686;9.738;2023-02-04T09:51:38;6.80;1.40
316;DHT22;14128;48.686;9.738;2023-02-04T09:54:07;6.90;1.40
316;DHT22;14128;48.686;9.738;2023-02-04T09:56:34;6.90;1.40
316;DHT22;14128;48.686;9.738;2023-02-04T09:59:03;7.00;1.40
316;DHT22;14128;48.686;9.738;2023-02-04T10:01:30;7.10;1.40
316;DHT22;14128;48.686;9.738;2023-02-04T10:04:00;7.10;1.40
316;DHT22;14128;48.686;9.738;2023-02-04T10:06:27;6.90;1.40
316;DHT22;14128;48.686;9.738;2023-02-04T10:08:56;6.80;1.40
316;DHT22;14128;48.686;9.738;2023-02-04T10:11:24;6.80;1.40
316;DHT22;14128;48.686;9.738;2023-02-04T10:13:53;6.90;1.40
316;DHT22;14128;48.686;9.738;2023-02-04T10:16:23;6.70;1.40
316;DHT22;14128;48.686;9.738;2023-02-04T10:18:55;6.70;1.40
316;DHT22;14128;48.686;9.738;2023-02-04T10:21:26;6.70;1.40
316;DHT22;14128;48.686;9.738;2023-02-04T10:23:56;6.70;1.40
316;DHT22;14128;48.686;9.738;2023-02-04T10:26:25;6.70;1.40
316;DHT22;14128;48.686;9.738;2023-02-04T10:28:58;6.50;1.40
316;DHT22;14128;48.686;9.738;2023-02-04T10:31:33;6.60;1.40
316;DHT22;14128;48.686;9.738;2023-02-04T10:34:04;6.60;1.40
316;DHT22;14128;48.686;9.738;2023-02-04T10:36:32;6.70;1.40
316;DHT22;14128;48.686;9.738;2023-02-04T10:39:00;6.80;1.40
316;DHT22;14128;48.686;9.738;2023-02-04T10:41:27;6.90;1.40
316;DHT22;14128;48.686;9.738;2023-02-04T10:44:02;6.80;1.40
316;DHT22;14128;48.686;9.738;2023-02-04T10:46:29;6.90;1.40
316;DHT22;14128;48.686;9.738;2023-02-04T10:48:57;6.90;1.40
316;DHT22;14128;48.686;9.738;2023-02-04T10:51:23;6.90;1.40
316;DHT22;14128;48.686;9.738;2023-02-04T10:53:50;7.00;1.40
316;DHT22;14128;48.686;9.738;2023-02-04T10:56:36;7.10;1.40
316;DHT22;14128;48.686;9.738;2023-02-04T10:59:03;7.10;1.40
316;DHT22;14128;48.686;9.738;2023-02-04T11:01:31;7.20;1.40
316;DHT22;14128;48.686;9.738;2023-02-04T11:03:58;7.30;1.40
316;DHT22;14128;48.686;9.738;2023-02-04T11:06:25;7.50;1.40
316;DHT22;14128;48.686;9.738;2023-02-04T11:08:52;7.80;1.40
316;DHT22;14128;48.686;9.738;2023-02-04T11:11:23;7.80;1.40
316;DHT22;14128;48.686;9.738;2023-02-04T11:14:00;8.20;1.40
316;DHT22;14128;48.686;9.738;2023-02-04T11:16:29;8.00;1.40
316;DHT22;14128;48.686;9.738;2023-02-04T11:19:01;7.90;1.40
316;DHT22;14128;48.686;9.738;2023-02-04T11:21:42;7.80;1.40
316;DHT22;14128;48.686;9.738;2023-02-04T11:24:23;7.70;1.40
316;DHT22;14128;48.686;9.738;2023-02-04T11:26:51;7.90;1.40
316;DHT22;14128;48.686;9.738;2023-02-04T11:29:31;8.10;1.40
316;DHT22;14128;48.686;9.738;2023-02-04T11:32:04;8.50;1.40
316;DHT22;14128;48.686;9.738;2023-02-04T11:34:47;8.40;1.40
316;DHT22;14128;48.686;9.738;2023-02-04T11:37:27;8.10;1.40
316;DHT22;14128;48.686;9.738;2023-02-04T11:39:57;7.90;1.40
316;DHT22;14128;48.686;9.738;2023-02-04T11:42:30;8.00;1.40
316;DHT22;14128;48.686;9.738;2023-02-04T11:45:00;8.00;1.40
316;DHT22;14128;48.686;9.738;2023-02-04T11:47:34;7.80;1.40
316;DHT22;14128;48.686;9.738;2023-02-04T11:50:09;7.90;1.40
316;DHT22;14128;48.686;9.738;2023-02-04T11:52:37;8.20;1.40
316;DHT22;14128;48.686;9.738;2023-02-04T11:55:04;8.30;1.40
316;DHT22;14128;48.686;9.738;2023-02-04T11:57:37;8.30;1.40
316;DHT22;14128;48.686;9.738;2023-02-04T12:00:12;8.10;1.40
316;DHT22;14128;48.686;9.738;2023-02-04T12:02:41;8.30;1.40
316;DHT22;14128;48.686;9.738;2023-02-04T12:05:10;8.60;1.40
316;DHT22;14128;48.686;9.738;2023-02-04T12:07:37;8.50;1.40
316;DHT22;14128;48.686;9.738;2023-02-04T12:10:12;8.60;1.40
316;DHT22;14128;48.686;9.738;2023-02-04T12:12:42;8.60;1.40
316;DHT22;14128;48.686;9.738;2023-02-04T12:15:16;8.60;1.40
316;DHT22;14128;48.686;9.738;2023-02-04T12:17:46;8.60;1.40
316;DHT22;14128;48.686;9.738;2023-02-04T12:20:13;8.60;1.40
316;DHT22;14128;48.686;9.738;2023-02-04T12:22:39;8.60;1.40
316;DHT22;14128;48.686;9.738;2023-02-04T12:25:07;8.70;1.40
316;DHT22;14128;48.686;9.738;2023-02-04T12:27:34;8.60;1.40
316;DHT22;14128;48.686;9.738;2023-02-04T12:30:00;8.50;1.40
316;DHT22;14128;48.686;9.738;2023-02-04T12:32:29;8.30;1.40
316;DHT22;14128;48.686;9.738;2023-02-04T12:34:55;8.00;1.40
316;DHT22;14128;48.686;9.738;2023-02-04T12:37:22;7.90;1.40
316;DHT22;14128;48.686;9.738;2023-02-04T12:39:49;8.00;1.40
316;DHT22;14128;48.686;9.738;2023-02-04T12:42:16;8.10;1.40
316;DHT22;14128;48.686;9.738;2023-02-04T12:44:43;8.00;1.40
316;DHT22;14128;48.686;9.738;2023-02-04T12:47:09;7.80;1.40
316;DHT22;14128;48.686;9.738;2023-02-04T12:49:37;7.60;1.40
316;DHT22;14128;48.686;9.738;2023-02-04T12:52:04;7.50;1.40
316;DHT22;14128;48.686;9.738;2023-02-04T12:54:31;7.60;1.40
316;DHT22;14128;48.686;9.738;2023-02-04T12:56:58;8.00;1.40
316;DHT22;14128;48.686;9.738;2023-02-04T12:59:27;8.00;1.40
316;DHT22;14128;48.686;9.738;2023-02-04T13:01:55;7.80;1.40
316;DHT22;14128;48.686;9.738;2023-02-04T13:04:22;7.90;1.40
316;DHT22;14128;48.686;9.738;2023-02-04T13:06:50;8.30;1.40
316;DHT22;14128;48.686;9.738;2023-02-04T13:09:17;8.60;1.40
316;DHT22;14128;48.686;9.738;2023-02-04T13:11:44;9.40;1.40
316;DHT22;14128;48.686;9.738;2023-02-04T13:14:11;10.00;1.40
316;DHT22;14128;48.686;9.738;2023-02-04T13:16:38;10.70;1.40
316;DHT22;14128;48.686;9.738;2023-02-04T13:19:04;11.00;1.40
316;DHT22;14128;48.686;9.738;2023-02-04T13:21:31;11.30;1.40
316;DHT22;14128;48.686;9.738;2023-02-04T13:23:59;11.20;1.40
316;DHT22;14128;48.686;9.738;2023-02-04T13:26:26;10.90;1.40
316;DHT22;14128;48.686;9.738;2023-02-04T13:28:53;10.50;1.40
316;DHT22;14128;48.686;9.738;2023-02-04T13:31:20;10.20;1.40
316;DHT22;14128;48.686;9.738;2023-02-04T13:33:46;9.80;1.40
316;DHT22;14128;48.686;9.738;2023-02-04T13:36:13;9.50;1.40
316;DHT22;14128;48.686;9.738;2023-02-04T13:38:40;9.30;1.40
316;DHT22;14128;48.686;9.738;2023-02-04T13:41:08;8.70;1.40
316;DHT22;14128;48.686;9.738;2023-02-04T13:43:35;8.30;1.40
316;DHT22;14128;48.686;9.738;2023-02-04T13:46:02;8.00;1.40
316;DHT22;14128;48.686;9.738;2023-02-04T13:48:30;7.80;1.40
316;DHT22;14128;48.686;9.738;2023-02-04T13:50:57;7.70;1.40
316;DHT22;14128;48.686;9.738;2023-02-04T13:53:24;7.80;1.40
316;DHT22;14128;48.686;9.738;2023-02-04T13:55:55;7.80;1.40
316;DHT22;14128;48.686;9.738;2023-02-04T13:58:23;7.80;1.40
316;DHT22;14128;48.686;9.738;2023-02-04T14:00:50;7.80;1.40
316;DHT22;14128;48.686;9.738;2023-02-04T14:03:22;7.70;1.40
316;DHT22;14128;48.686;9.738;2023-02-04T14:05:48;7.60;1.40
316;DHT22;14128;48.686;9.738;2023-02-04T14:08:15;7.80;1.40
316;DHT22;14128;48.686;9.738;2023-02-04T14:10:42;8.10;1.40
316;DHT22;14128;48.686;9.738;2023-02-04T14:13:09;8.20;1.40
316;DHT22;14128;48.686;9.738;2023-02-04T14:15:37;8.20;1.40
316;DHT22;14128;48.686;9.738;2023-02-04T14:18:06;8.10;1.40
316;DHT22;14128;48.686;9.738;2023-02-04T14:20:33;8.00;1.40
316;DHT22;14128;48.686;9.738;2023-02-04T14:23:00;7.90;1.40
316;DHT22;14128;48.686;9.738;2023-02-04T14:25:27;8.10;1.40
316;DHT22;14128;48.686;9.738;2023-02-04T14:27:54;8.30;1.40
316;DHT22;14128;48.686;9.738;2023-02-04T14:30:22;8.50;1.40
316;DHT22;14128;48.686;9.738;2023-02-04T14:32:50;8.50;1.40
316;DHT22;14128;48.686;9.738;2023-02-04T14:35:18;8.40;1.40
316;DHT22;14128;48.686;9.738;2023-02-04T14:37:45;8.20;1.40
316;DHT22;14128;48.686;9.738;2023-02-04T14:40:13;8.20;1.40
316;DHT22;14128;48.686;9.738;2023-02-04T14:42:40;8.20;1.40
316;DHT22;14128;48.686;9.738;2023-02-04T14:45:09;8.00;1.40
316;DHT22;14128;48.686;9.738;2023-02-04T14:47:36;7.80;1.40
316;DHT22;14128;48.686;9.738;2023-02-04T14:50:07;7.70;1.40
316;DHT22;14128;48.686;9.738;2023-02-04T14:52:34;7.60;1.40
316;DHT22;14128;48.686;9.738;2023-02-04T14:55:01;7.30;1.40
316;DHT22;14128;48.686;9.738;2023-02-04T14:57:28;7.20;1.40
316;DHT22;14128;48.686;9.738;2023-02-04T14:59:55;7.00;1.40
316;DHT22;14128;48.686;9.738;2023-02-04T15:02:21;6.90;1.40
316;DHT22;14128;48.686;9.738;2023-02-04T15:04:48;6.70;1.40
316;DHT22;14128;48.686;9.738;2023-02-04T15:07:16;6.60;1.40
316;DHT22;14128;48.686;9.738;2023-02-04T15:09:43;6.40;1.40
316;DHT22;14128;48.686;9.738;2023-02-04T15:12:10;6.30;1.40
316;DHT22;14128;48.686;9.738;2023-02-04T15:14:37;6.20;1.40
316;DHT22;14128;48.686;9.738;2023-02-04T15:17:04;6.20;1.40
316;DHT22;14128;48.686;9.738;2023-02-04T15:19:31;6.10;1.40
316;DHT22;14128;48.686;9.738;2023-02-04T15:21:57;6.00;1.40
316;DHT22;14128;48.686;9.738;2023-02-04T15:24:25;6.00;1.40
316;DHT22;14128;48.686;9.738;2023-02-04T15:26:54;6.00;1.40
316;DHT22;14128;48.686;9.738;2023-02-04T15:29:20;6.00;1.40
316;DHT22;14128;48.686;9.738;2023-02-04T15:31:47;5.90;1.40
316;DHT22;14128;48.686;9.738;2023-02-04T15:34:14;5.80;1.40
316;DHT22;14128;48.686;9.738;2023-02-04T15:36:41;5.80;1.40
316;DHT22;14128;48.686;9.738;2023-02-04T15:39:08;5.80;1.40
316;DHT22;14128;48.686;9.738;2023-02-04T15:41:36;5.70;1.40
316;DHT22;14128;48.686;9.738;2023-02-04T15:44:03;5.70;1.40
316;DHT22;14128;48.686;9.738;2023-02-04T15:46:30;5.60;1.40
316;DHT22;14128;48.686;9.738;2023-02-04T15:48:57;5.60;1.40
316;DHT22;14128;48.686;9.738;2023-02-04T15:51:24;5.60;1.40
316;DHT22;14128;48.686;9.738;2023-02-04T15:53:51;5.60;1.40
316;DHT22;14128;48.686;9.738;2023-02-04T15:56:18;5.60;1.40
316;DHT22;14128;48.686;9.738;2023-02-04T15:58:46;5.60;1.40
316;DHT22;14128;48.686;9.738;2023-02-04T16:01:13;5.60;1.40
316;DHT22;14128;48.686;9.738;2023-02-04T16:03:40;5.60;1.40
316;DHT22;14128;48.686;9.738;2023-02-04T16:06:09;5.60;1.40
316;DHT22;14128;48.686;9.738;2023-02-04T16:08:36;5.50;1.40
316;DHT22;14128;48.686;9.738;2023-02-04T16:11:03;5.40;1.40
316;DHT22;14128;48.686;9.738;2023-02-04T16:13:30;5.30;1.40
316;DHT22;14128;48.686;9.738;2023-02-04T16:15:58;5.00;1.40
316;DHT22;14128;48.686;9.738;2023-02-04T16:18:25;4.70;1.40
316;DHT22;14128;48.686;9.738;2023-02-04T16:20:52;4.40;1.40
316;DHT22;14128;48.686;9.738;2023-02-04T16:23:19;4.10;1.40
316;DHT22;14128;48.686;9.738;2023-02-04T16:25:45;3.90;1.40
316;DHT22;14128;48.686;9.738;2023-02-04T16:28:12;3.70;1.40
316;DHT22;14128;48.686;9.738;2023-02-04T16:30:39;3.50;1.40
316;DHT22;14128;48.686;9.738;2023-02-04T16:33:07;3.30;1.40
316;DHT22;14128;48.686;9.738;2023-02-04T16:35:55;3.10;1.40
316;DHT22;14128;48.686;9.738;2023-02-04T16:38:22;2.90;1.40